createdAt,value
2019-04-05T00:10:19.340Z,0.00
2019-04-05T00:25:19.387Z,0.00
2019-04-05T00:40:19.785Z,0.00
2019-04-05T00:55:20.217Z,0.00
2019-04-05T01:10:20.659Z,0.00
2019-04-05T01:25:20.838Z,0.00
2019-04-05T01:40:21.258Z,0.00
2019-04-05T01:55:21.580Z,0.00
2019-04-05T02:10:21.915Z,0.00
2019-04-05T02:25:22.293Z,0.00
2019-04-05T02:40:22.377Z,0.00
2019-04-05T02:55:22.474Z,0.00
2019-04-05T03:10:22.566Z,0.00
2019-04-05T03:25:22.609Z,0.00
2019-04-05T03:40:22.710Z,0.00
2019-04-05T03:55:22.813Z,0.00
2019-04-05T04:10:22.934Z,0.00
2019-04-05T04:25:23.017Z,0.00
2019-04-05T04:40:23.098Z,5.62
2019-04-05T04:55:23.190Z,16.88
2019-04-05T05:10:23.326Z,33.75
2019-04-05T05:25:23.393Z,50.62
2019-04-05T05:40:34.018Z,61.88
2019-04-05T05:55:30.215Z,67.50
2019-04-05T06:10:30.425Z,78.75
2019-04-05T06:25:30.865Z,90.00
2019-04-05T06:40:40.835Z,101.25
2019-04-05T06:55:36.827Z,112.50
2019-04-05T07:10:37.227Z,123.75
2019-04-05T07:25:37.461Z,140.62
2019-04-05T07:40:37.770Z,151.88
2019-04-05T07:55:38.231Z,168.75
2019-04-05T08:10:38.345Z,174.38
2019-04-05T08:25:41.267Z,180.00
2019-04-05T08:40:41.738Z,185.62
2019-04-05T08:55:41.957Z,202.50
2019-04-05T09:10:42.225Z,219.38
2019-04-05T09:25:42.376Z,247.50
2019-04-05T09:40:42.655Z,286.88
2019-04-05T09:55:42.934Z,320.62
2019-04-05T10:10:43.078Z,382.50
2019-04-05T10:25:44.059Z,495.00
2019-04-05T10:40:44.392Z,315.00
2019-04-05T10:55:44.566Z,208.12
2019-04-05T11:10:44.708Z,191.25
2019-04-05T11:25:44.819Z,168.75
2019-04-05T11:40:44.978Z,157.50
2019-04-05T11:55:46.784Z,146.25
2019-04-05T12:10:47.213Z,168.75
2019-04-05T12:25:47.330Z,298.12
2019-04-05T12:40:47.430Z,478.12
2019-04-05T12:55:47.536Z,630.00
2019-04-05T13:10:48.062Z,1321.88
2019-04-05T13:25:48.610Z,1400.62
2019-04-05T13:40:48.705Z,1411.88
2019-04-05T13:55:48.785Z,1029.38
2019-04-05T14:10:48.906Z,630.00
2019-04-05T14:25:49.086Z,528.75
2019-04-05T14:40:49.270Z,540.00
2019-04-05T14:55:49.393Z,517.50
2019-04-05T15:10:51.334Z,568.12
2019-04-05T15:25:51.601Z,309.38
2019-04-05T15:40:52.076Z,315.00
2019-04-05T15:55:52.156Z,286.88
2019-04-05T16:10:52.310Z,196.88
2019-04-05T16:25:52.379Z,163.12
2019-04-05T16:40:52.473Z,112.50
2019-04-05T16:55:52.689Z,78.75
2019-04-05T17:10:53.160Z,45.00
2019-04-05T17:25:53.285Z,22.50
2019-04-05T17:40:53.903Z,5.62
2019-04-05T17:55:54.202Z,0.00
2019-04-05T18:10:54.307Z,0.00
2019-04-05T18:25:54.384Z,0.00
2019-04-05T18:40:54.468Z,0.00
2019-04-05T18:55:54.685Z,0.00
2019-04-05T19:10:54.680Z,0.00
2019-04-05T19:25:54.778Z,0.00
2019-04-05T19:55:59.929Z,0.00
2019-04-05T20:11:00.045Z,0.00
2019-04-05T20:26:00.145Z,0.00
2019-04-05T20:41:00.245Z,0.00
2019-04-05T20:56:00.305Z,0.00
2019-04-05T21:11:00.361Z,0.00
2019-04-05T21:26:00.501Z,0.00
2019-04-05T21:41:00.571Z,0.00
2019-04-05T21:56:00.645Z,0.00
2019-04-05T22:11:00.797Z,0.00
2019-04-05T22:26:00.871Z,0.00
2019-04-05T22:41:00.961Z,0.00
2019-04-05T22:56:01.051Z,0.00
2019-04-05T23:11:01.093Z,0.00
2019-04-05T23:26:01.171Z,0.00
2019-04-05T23:41:01.345Z,0.00
2019-04-05T23:56:01.490Z,0.00
